Terminal Aerodrome Forecast
Issued by NWS

Home | Current Version | Previous Version | Text Only | Print | Product List | Glossary On
Versions: 1 2 3 4 5 6 7 8 9 10 11 12 13 14 15
000
FTUS42 KGSP 211700
TAFAND
TAF
KAND 211727Z 2118/2218 26004KT P6SM FEW060 SCT250
     FM220000 VRB02KT P6SM SCT200
     FM221400 31005KT P6SM FEW060 SCT200=

USA.gov is the U.S. government's official web portal to all federal, state and local government web resources and services.